sensor_id;sensor_type;location;lat;lon;timestamp;P1;durP1;ratioP1;P2;durP2;ratioP2
6852;SDS011;3465;42.144;24.722;2023-03-25T00:01:11;20.00;;;11.10;;
6852;SDS011;3465;42.144;24.722;2023-03-25T00:03:40;21.00;;;11.37;;
6852;SDS011;3465;42.144;24.722;2023-03-25T00:06:07;19.90;;;11.07;;
6852;SDS011;3465;42.144;24.722;2023-03-25T00:08:34;21.97;;;12.27;;
6852;SDS011;3465;42.144;24.722;2023-03-25T00:11:00;21.77;;;12.33;;
6852;SDS011;3465;42.144;24.722;2023-03-25T00:13:28;25.80;;;11.70;;
6852;SDS011;3465;42.144;24.722;2023-03-25T00:15:56;21.40;;;12.73;;
6852;SDS011;3465;42.144;24.722;2023-03-25T00:18:23;25.13;;;12.43;;
6852;SDS011;3465;42.144;24.722;2023-03-25T00:20:51;23.53;;;12.63;;
6852;SDS011;3465;42.144;24.722;2023-03-25T00:23:18;21.07;;;12.47;;
6852;SDS011;3465;42.144;24.722;2023-03-25T00:25:44;25.67;;;12.80;;
6852;SDS011;3465;42.144;24.722;2023-03-25T00:28:10;23.97;;;12.80;;
6852;SDS011;3465;42.144;24.722;2023-03-25T00:30:37;25.03;;;13.03;;
6852;SDS011;3465;42.144;24.722;2023-03-25T00:33:02;24.20;;;12.80;;
6852;SDS011;3465;42.144;24.722;2023-03-25T00:35:28;23.30;;;12.77;;
6852;SDS011;3465;42.144;24.722;2023-03-25T00:37:55;24.40;;;12.63;;
6852;SDS011;3465;42.144;24.722;2023-03-25T00:40:27;22.97;;;12.97;;
6852;SDS011;3465;42.144;24.722;2023-03-25T00:42:54;28.07;;;16.00;;
6852;SDS011;3465;42.144;24.722;2023-03-25T00:45:20;28.37;;;15.97;;
6852;SDS011;3465;42.144;24.722;2023-03-25T00:47:46;23.90;;;15.23;;
6852;SDS011;3465;42.144;24.722;2023-03-25T00:50:11;24.73;;;15.53;;
6852;SDS011;3465;42.144;24.722;2023-03-25T00:52:37;26.27;;;15.80;;
6852;SDS011;3465;42.144;24.722;2023-03-25T00:55:03;27.47;;;15.30;;
6852;SDS011;3465;42.144;24.722;2023-03-25T00:57:30;30.00;;;15.70;;
6852;SDS011;3465;42.144;24.722;2023-03-25T00:59:56;30.60;;;16.30;;
6852;SDS011;3465;42.144;24.722;2023-03-25T01:02:22;30.63;;;16.40;;
6852;SDS011;3465;42.144;24.722;2023-03-25T01:04:48;27.13;;;16.27;;
6852;SDS011;3465;42.144;24.722;2023-03-25T01:07:14;30.70;;;16.23;;
6852;SDS011;3465;42.144;24.722;2023-03-25T01:09:41;29.83;;;16.00;;
6852;SDS011;3465;42.144;24.722;2023-03-25T01:12:09;29.93;;;17.03;;
6852;SDS011;3465;42.144;24.722;2023-03-25T01:14:35;27.93;;;16.83;;
6852;SDS011;3465;42.144;24.722;2023-03-25T01:17:00;27.93;;;16.30;;
6852;SDS011;3465;42.144;24.722;2023-03-25T01:19:29;26.40;;;15.10;;
6852;SDS011;3465;42.144;24.722;2023-03-25T01:21:54;28.33;;;15.97;;
6852;SDS011;3465;42.144;24.722;2023-03-25T01:24:20;29.63;;;15.10;;
6852;SDS011;3465;42.144;24.722;2023-03-25T01:26:45;32.50;;;15.40;;
6852;SDS011;3465;42.144;24.722;2023-03-25T01:29:12;31.00;;;15.03;;
6852;SDS011;3465;42.144;24.722;2023-03-25T01:31:39;24.60;;;13.87;;
6852;SDS011;3465;42.144;24.722;2023-03-25T01:34:05;26.97;;;14.73;;
6852;SDS011;3465;42.144;24.722;2023-03-25T01:36:31;25.47;;;15.83;;
6852;SDS011;3465;42.144;24.722;2023-03-25T01:38:57;32.47;;;16.40;;
6852;SDS011;3465;42.144;24.722;2023-03-25T01:41:24;30.03;;;16.97;;
6852;SDS011;3465;42.144;24.722;2023-03-25T01:46:33;27.37;;;17.17;;
6852;SDS011;3465;42.144;24.722;2023-03-25T01:48:59;29.67;;;17.40;;
6852;SDS011;3465;42.144;24.722;2023-03-25T01:51:31;30.33;;;17.30;;
6852;SDS011;3465;42.144;24.722;2023-03-25T01:54:00;30.07;;;16.83;;
6852;SDS011;3465;42.144;24.722;2023-03-25T01:56:27;30.43;;;17.00;;
6852;SDS011;3465;42.144;24.722;2023-03-25T01:58:57;28.03;;;16.23;;
6852;SDS011;3465;42.144;24.722;2023-03-25T02:01:27;27.63;;;15.40;;
6852;SDS011;3465;42.144;24.722;2023-03-25T02:03:53;28.67;;;15.73;;
6852;SDS011;3465;42.144;24.722;2023-03-25T02:06:27;27.20;;;15.73;;
6852;SDS011;3465;42.144;24.722;2023-03-25T02:08:57;30.70;;;16.80;;
6852;SDS011;3465;42.144;24.722;2023-03-25T02:11:26;33.27;;;16.67;;
6852;SDS011;3465;42.144;24.722;2023-03-25T02:13:54;27.77;;;16.30;;
6852;SDS011;3465;42.144;24.722;2023-03-25T02:19:24;26.47;;;15.47;;
6852;SDS011;3465;42.144;24.722;2023-03-25T02:25:11;29.20;;;15.13;;
6852;SDS011;3465;42.144;24.722;2023-03-25T02:42:22;27.40;;;12.67;;
6852;SDS011;3465;42.144;24.722;2023-03-25T02:45:06;23.17;;;12.70;;
6852;SDS011;3465;42.144;24.722;2023-03-25T02:47:37;22.80;;;12.13;;
6852;SDS011;3465;42.144;24.722;2023-03-25T02:50:10;24.20;;;12.03;;
6852;SDS011;3465;42.144;24.722;2023-03-25T02:52:48;22.17;;;12.13;;
6852;SDS011;3465;42.144;24.722;2023-03-25T02:55:17;25.07;;;11.80;;
6852;SDS011;3465;42.144;24.722;2023-03-25T02:57:47;22.27;;;12.57;;
6852;SDS011;3465;42.144;24.722;2023-03-25T03:00:17;22.20;;;11.97;;
6852;SDS011;3465;42.144;24.722;2023-03-25T03:02:53;21.93;;;12.00;;
6852;SDS011;3465;42.144;24.722;2023-03-25T03:16:26;18.47;;;11.63;;
6852;SDS011;3465;42.144;24.722;2023-03-25T03:21:48;18.93;;;11.47;;
6852;SDS011;3465;42.144;24.722;2023-03-25T03:24:26;21.10;;;11.87;;
6852;SDS011;3465;42.144;24.722;2023-03-25T03:29:51;20.37;;;12.60;;
6852;SDS011;3465;42.144;24.722;2023-03-25T03:32:24;22.10;;;11.97;;
6852;SDS011;3465;42.144;24.722;2023-03-25T03:35:00;18.53;;;11.50;;
6852;SDS011;3465;42.144;24.722;2023-03-25T03:37:33;21.73;;;12.33;;
6852;SDS011;3465;42.144;24.722;2023-03-25T03:40:06;26.27;;;12.97;;
6852;SDS011;3465;42.144;24.722;2023-03-25T03:42:38;21.90;;;11.93;;
6852;SDS011;3465;42.144;24.722;2023-03-25T03:45:09;20.83;;;12.33;;
6852;SDS011;3465;42.144;24.722;2023-03-25T03:47:41;17.07;;;11.63;;
6852;SDS011;3465;42.144;24.722;2023-03-25T03:50:19;25.33;;;12.03;;
6852;SDS011;3465;42.144;24.722;2023-03-25T03:52:50;20.73;;;11.30;;
6852;SDS011;3465;42.144;24.722;2023-03-25T03:55:24;20.07;;;11.60;;
6852;SDS011;3465;42.144;24.722;2023-03-25T03:58:01;16.60;;;10.80;;
6852;SDS011;3465;42.144;24.722;2023-03-25T04:00:47;23.87;;;10.73;;
6852;SDS011;3465;42.144;24.722;2023-03-25T04:03:23;18.67;;;10.27;;
6852;SDS011;3465;42.144;24.722;2023-03-25T04:05:59;18.20;;;10.90;;
6852;SDS011;3465;42.144;24.722;2023-03-25T04:08:33;20.83;;;11.07;;
6852;SDS011;3465;42.144;24.722;2023-03-25T04:11:07;22.23;;;10.50;;
6852;SDS011;3465;42.144;24.722;2023-03-25T04:13:36;20.27;;;12.50;;
6852;SDS011;3465;42.144;24.722;2023-03-25T04:16:06;24.97;;;11.33;;
6852;SDS011;3465;42.144;24.722;2023-03-25T04:18:33;19.77;;;11.30;;
6852;SDS011;3465;42.144;24.722;2023-03-25T04:20:58;21.33;;;11.13;;
6852;SDS011;3465;42.144;24.722;2023-03-25T04:23:25;23.23;;;11.93;;
6852;SDS011;3465;42.144;24.722;2023-03-25T04:25:54;21.43;;;11.63;;
6852;SDS011;3465;42.144;24.722;2023-03-25T04:28:19;21.73;;;11.40;;
6852;SDS011;3465;42.144;24.722;2023-03-25T04:30:45;20.67;;;11.60;;
6852;SDS011;3465;42.144;24.722;2023-03-25T04:33:12;21.30;;;11.13;;
6852;SDS011;3465;42.144;24.722;2023-03-25T04:35:38;21.13;;;11.57;;
6852;SDS011;3465;42.144;24.722;2023-03-25T04:38:04;20.63;;;11.50;;
6852;SDS011;3465;42.144;24.722;2023-03-25T04:40:31;24.77;;;12.87;;
6852;SDS011;3465;42.144;24.722;2023-03-25T04:42:57;23.93;;;12.23;;
6852;SDS011;3465;42.144;24.722;2023-03-25T04:45:22;21.53;;;11.50;;
6852;SDS011;3465;42.144;24.722;2023-03-25T04:47:49;18.50;;;10.93;;
6852;SDS011;3465;42.144;24.722;2023-03-25T04:50:22;20.23;;;10.90;;
6852;SDS011;3465;42.144;24.722;2023-03-25T04:52:49;17.47;;;10.90;;
6852;SDS011;3465;42.144;24.722;2023-03-25T04:55:15;18.73;;;11.20;;
6852;SDS011;3465;42.144;24.722;2023-03-25T04:57:44;18.83;;;10.90;;
6852;SDS011;3465;42.144;24.722;2023-03-25T05:00:10;17.43;;;10.70;;
6852;SDS011;3465;42.144;24.722;2023-03-25T05:02:41;18.97;;;10.40;;
6852;SDS011;3465;42.144;24.722;2023-03-25T05:05:26;19.57;;;11.03;;
6852;SDS011;3465;42.144;24.722;2023-03-25T05:07:52;19.37;;;9.90;;
6852;SDS011;3465;42.144;24.722;2023-03-25T05:10:20;18.50;;;10.17;;
6852;SDS011;3465;42.144;24.722;2023-03-25T05:12:47;18.27;;;9.87;;
6852;SDS011;3465;42.144;24.722;2023-03-25T05:15:13;15.57;;;9.50;;
6852;SDS011;3465;42.144;24.722;2023-03-25T05:17:41;15.33;;;9.67;;
6852;SDS011;3465;42.144;24.722;2023-03-25T05:20:08;15.37;;;9.83;;
6852;SDS011;3465;42.144;24.722;2023-03-25T05:22:35;13.27;;;8.53;;
6852;SDS011;3465;42.144;24.722;2023-03-25T05:25:03;13.77;;;8.50;;
6852;SDS011;3465;42.144;24.722;2023-03-25T05:27:32;10.32;;;7.45;;
6852;SDS011;3465;42.144;24.722;2023-03-25T05:29:58;11.63;;;7.85;;
6852;SDS011;3465;42.144;24.722;2023-03-25T05:32:24;12.88;;;8.30;;
6852;SDS011;3465;42.144;24.722;2023-03-25T05:34:54;11.57;;;7.97;;
6852;SDS011;3465;42.144;24.722;2023-03-25T05:37:20;11.25;;;7.72;;
6852;SDS011;3465;42.144;24.722;2023-03-25T05:39:46;10.48;;;7.32;;
6852;SDS011;3465;42.144;24.722;2023-03-25T05:42:11;17.23;;;7.57;;
6852;SDS011;3465;42.144;24.722;2023-03-25T05:44:37;11.43;;;7.40;;
6852;SDS011;3465;42.144;24.722;2023-03-25T05:47:03;13.90;;;7.53;;
6852;SDS011;3465;42.144;24.722;2023-03-25T05:49:28;12.82;;;7.60;;
6852;SDS011;3465;42.144;24.722;2023-03-25T05:51:54;12.93;;;7.35;;
6852;SDS011;3465;42.144;24.722;2023-03-25T05:54:20;9.65;;;7.15;;
6852;SDS011;3465;42.144;24.722;2023-03-25T05:56:48;13.70;;;7.70;;
6852;SDS011;3465;42.144;24.722;2023-03-25T05:59:14;11.40;;;7.22;;
6852;SDS011;3465;42.144;24.722;2023-03-25T06:01:40;9.70;;;6.82;;
6852;SDS011;3465;42.144;24.722;2023-03-25T06:04:09;14.52;;;8.43;;
6852;SDS011;3465;42.144;24.722;2023-03-25T06:06:38;12.73;;;8.48;;
6852;SDS011;3465;42.144;24.722;2023-03-25T06:09:04;12.90;;;8.10;;
6852;SDS011;3465;42.144;24.722;2023-03-25T06:11:30;11.95;;;7.78;;
6852;SDS011;3465;42.144;24.722;2023-03-25T06:14:02;14.35;;;7.63;;
6852;SDS011;3465;42.144;24.722;2023-03-25T06:16:31;11.90;;;8.70;;
6852;SDS011;3465;42.144;24.722;2023-03-25T06:18:57;12.60;;;8.13;;
6852;SDS011;3465;42.144;24.722;2023-03-25T06:21:27;10.38;;;7.85;;
6852;SDS011;3465;42.144;24.722;2023-03-25T06:23:56;12.43;;;8.40;;
6852;SDS011;3465;42.144;24.722;2023-03-25T06:26:22;11.13;;;7.95;;
6852;SDS011;3465;42.144;24.722;2023-03-25T06:28:54;11.98;;;7.95;;
6852;SDS011;3465;42.144;24.722;2023-03-25T06:31:21;14.57;;;7.93;;
6852;SDS011;3465;42.144;24.722;2023-03-25T06:33:50;12.63;;;8.27;;
6852;SDS011;3465;42.144;24.722;2023-03-25T06:36:17;12.32;;;7.75;;
6852;SDS011;3465;42.144;24.722;2023-03-25T06:38:47;10.57;;;7.70;;
6852;SDS011;3465;42.144;24.722;2023-03-25T06:41:14;18.08;;;8.05;;
6852;SDS011;3465;42.144;24.722;2023-03-25T06:43:44;10.98;;;7.35;;
6852;SDS011;3465;42.144;24.722;2023-03-25T06:46:10;10.65;;;7.53;;
6852;SDS011;3465;42.144;24.722;2023-03-25T06:48:35;10.80;;;7.40;;
6852;SDS011;3465;42.144;24.722;2023-03-25T06:51:00;10.68;;;7.50;;
6852;SDS011;3465;42.144;24.722;2023-03-25T06:53:26;10.35;;;7.07;;
6852;SDS011;3465;42.144;24.722;2023-03-25T06:55:51;9.30;;;6.93;;
6852;SDS011;3465;42.144;24.722;2023-03-25T06:58:17;13.10;;;7.20;;
6852;SDS011;3465;42.144;24.722;2023-03-25T07:00:42;10.93;;;7.07;;
6852;SDS011;3465;42.144;24.722;2023-03-25T07:03:08;10.18;;;6.30;;
6852;SDS011;3465;42.144;24.722;2023-03-25T07:05:34;9.73;;;6.28;;
6852;SDS011;3465;42.144;24.722;2023-03-25T07:08:00;9.30;;;5.80;;
6852;SDS011;3465;42.144;24.722;2023-03-25T07:10:25;13.27;;;6.38;;
6852;SDS011;3465;42.144;24.722;2023-03-25T07:12:51;8.63;;;6.30;;
6852;SDS011;3465;42.144;24.722;2023-03-25T07:15:16;11.60;;;5.72;;
6852;SDS011;3465;42.144;24.722;2023-03-25T07:17:42;8.88;;;5.82;;
6852;SDS011;3465;42.144;24.722;2023-03-25T07:20:07;8.07;;;5.93;;
6852;SDS011;3465;42.144;24.722;2023-03-25T07:22:33;9.85;;;6.05;;
6852;SDS011;3465;42.144;24.722;2023-03-25T07:24:59;7.75;;;5.68;;
6852;SDS011;3465;42.144;24.722;2023-03-25T07:27:24;7.72;;;5.88;;
6852;SDS011;3465;42.144;24.722;2023-03-25T07:29:50;9.20;;;6.70;;
6852;SDS011;3465;42.144;24.722;2023-03-25T07:32:16;11.07;;;6.35;;
6852;SDS011;3465;42.144;24.722;2023-03-25T07:34:41;11.13;;;6.70;;
6852;SDS011;3465;42.144;24.722;2023-03-25T07:37:07;7.85;;;6.13;;
6852;SDS011;3465;42.144;24.722;2023-03-25T07:39:33;10.25;;;6.47;;
6852;SDS011;3465;42.144;24.722;2023-03-25T07:41:58;10.60;;;6.50;;
6852;SDS011;3465;42.144;24.722;2023-03-25T07:44:24;9.45;;;6.50;;
6852;SDS011;3465;42.144;24.722;2023-03-25T07:46:49;9.43;;;6.70;;
6852;SDS011;3465;42.144;24.722;2023-03-25T07:49:15;8.70;;;6.35;;
6852;SDS011;3465;42.144;24.722;2023-03-25T07:51:41;7.28;;;5.75;;
6852;SDS011;3465;42.144;24.722;2023-03-25T07:54:07;11.15;;;6.15;;
6852;SDS011;3465;42.144;24.722;2023-03-25T07:56:33;9.82;;;6.75;;
6852;SDS011;3465;42.144;24.722;2023-03-25T07:58:58;9.82;;;6.57;;
6852;SDS011;3465;42.144;24.722;2023-03-25T08:01:24;10.80;;;5.85;;
6852;SDS011;3465;42.144;24.722;2023-03-25T08:03:49;12.07;;;6.38;;
6852;SDS011;3465;42.144;24.722;2023-03-25T08:06:14;9.70;;;6.47;;
6852;SDS011;3465;42.144;24.722;2023-03-25T08:08:40;9.13;;;6.15;;
6852;SDS011;3465;42.144;24.722;2023-03-25T08:11:05;8.82;;;5.70;;
6852;SDS011;3465;42.144;24.722;2023-03-25T08:13:31;9.07;;;5.40;;
6852;SDS011;3465;42.144;24.722;2023-03-25T08:15:56;8.15;;;5.63;;
6852;SDS011;3465;42.144;24.722;2023-03-25T08:18:22;7.63;;;5.50;;
6852;SDS011;3465;42.144;24.722;2023-03-25T08:20:48;8.45;;;5.45;;
6852;SDS011;3465;42.144;24.722;2023-03-25T08:23:14;8.55;;;5.60;;
6852;SDS011;3465;42.144;24.722;2023-03-25T08:25:43;8.32;;;5.20;;
6852;SDS011;3465;42.144;24.722;2023-03-25T08:28:13;8.02;;;5.28;;
6852;SDS011;3465;42.144;24.722;2023-03-25T08:30:41;6.97;;;4.95;;
6852;SDS011;3465;42.144;24.722;2023-03-25T08:33:07;7.50;;;5.10;;
6852;SDS011;3465;42.144;24.722;2023-03-25T08:35:35;7.40;;;4.95;;
6852;SDS011;3465;42.144;24.722;2023-03-25T08:38:02;9.13;;;5.38;;
6852;SDS011;3465;42.144;24.722;2023-03-25T08:40:31;12.73;;;5.72;;
6852;SDS011;3465;42.144;24.722;2023-03-25T08:42:58;7.50;;;5.47;;
6852;SDS011;3465;42.144;24.722;2023-03-25T08:45:23;8.30;;;5.75;;
6852;SDS011;3465;42.144;24.722;2023-03-25T08:47:49;7.30;;;5.05;;
6852;SDS011;3465;42.144;24.722;2023-03-25T08:50:14;8.02;;;5.82;;
6852;SDS011;3465;42.144;24.722;2023-03-25T08:52:40;8.65;;;5.50;;
6852;SDS011;3465;42.144;24.722;2023-03-25T08:55:06;10.95;;;5.93;;
6852;SDS011;3465;42.144;24.722;2023-03-25T08:57:33;9.93;;;5.78;;
6852;SDS011;3465;42.144;24.722;2023-03-25T09:00:00;10.98;;;6.07;;
6852;SDS011;3465;42.144;24.722;2023-03-25T09:02:29;16.45;;;6.05;;
6852;SDS011;3465;42.144;24.722;2023-03-25T09:04:55;8.68;;;5.60;;
6852;SDS011;3465;42.144;24.722;2023-03-25T09:07:20;8.80;;;5.25;;
6852;SDS011;3465;42.144;24.722;2023-03-25T09:09:47;11.23;;;5.25;;
6852;SDS011;3465;42.144;24.722;2023-03-25T09:12:12;11.00;;;5.90;;
6852;SDS011;3465;42.144;24.722;2023-03-25T09:14:38;10.43;;;6.28;;
6852;SDS011;3465;42.144;24.722;2023-03-25T09:17:03;6.35;;;5.57;;
6852;SDS011;3465;42.144;24.722;2023-03-25T09:19:30;8.45;;;5.15;;
6852;SDS011;3465;42.144;24.722;2023-03-25T09:21:57;9.38;;;5.88;;
6852;SDS011;3465;42.144;24.722;2023-03-25T09:24:22;6.43;;;5.30;;
6852;SDS011;3465;42.144;24.722;2023-03-25T09:26:48;11.90;;;6.32;;
6852;SDS011;3465;42.144;24.722;2023-03-25T09:29:14;10.70;;;5.82;;
6852;SDS011;3465;42.144;24.722;2023-03-25T09:31:39;8.35;;;5.25;;
6852;SDS011;3465;42.144;24.722;2023-03-25T09:34:05;7.72;;;5.70;;
6852;SDS011;3465;42.144;24.722;2023-03-25T09:36:31;8.18;;;5.63;;
6852;SDS011;3465;42.144;24.722;2023-03-25T09:38:56;8.00;;;5.63;;
6852;SDS011;3465;42.144;24.722;2023-03-25T09:47:28;7.80;;;6.57;;
6852;SDS011;3465;42.144;24.722;2023-03-25T09:49:58;9.15;;;5.97;;
6852;SDS011;3465;42.144;24.722;2023-03-25T09:52:38;8.85;;;5.82;;
6852;SDS011;3465;42.144;24.722;2023-03-25T09:55:20;8.95;;;6.20;;
6852;SDS011;3465;42.144;24.722;2023-03-25T09:57:49;11.27;;;6.18;;
6852;SDS011;3465;42.144;24.722;2023-03-25T10:00:21;13.68;;;6.22;;
6852;SDS011;3465;42.144;24.722;2023-03-25T10:02:50;11.10;;;7.47;;
6852;SDS011;3465;42.144;24.722;2023-03-25T10:10:26;10.77;;;6.53;;
6852;SDS011;3465;42.144;24.722;2023-03-25T10:15:58;13.57;;;6.75;;
6852;SDS011;3465;42.144;24.722;2023-03-25T10:21:17;12.63;;;7.25;;
6852;SDS011;3465;42.144;24.722;2023-03-25T10:24:07;13.00;;;7.38;;
6852;SDS011;3465;42.144;24.722;2023-03-25T10:26:44;12.50;;;6.85;;
6852;SDS011;3465;42.144;24.722;2023-03-25T10:29:33;9.82;;;6.68;;
6852;SDS011;3465;42.144;24.722;2023-03-25T10:32:16;12.93;;;6.65;;
6852;SDS011;3465;42.144;24.722;2023-03-25T10:34:49;9.98;;;6.60;;
6852;SDS011;3465;42.144;24.722;2023-03-25T10:37:30;12.15;;;6.70;;
6852;SDS011;3465;42.144;24.722;2023-03-25T10:43:11;9.02;;;6.68;;
6852;SDS011;3465;42.144;24.722;2023-03-25T10:45:38;9.35;;;6.28;;
6852;SDS011;3465;42.144;24.722;2023-03-25T10:48:10;10.65;;;6.22;;
6852;SDS011;3465;42.144;24.722;2023-03-25T10:50:40;8.10;;;6.30;;
6852;SDS011;3465;42.144;24.722;2023-03-25T10:53:11;8.82;;;5.80;;
6852;SDS011;3465;42.144;24.722;2023-03-25T10:55:45;7.60;;;5.53;;
6852;SDS011;3465;42.144;24.722;2023-03-25T10:58:16;8.50;;;6.25;;
6852;SDS011;3465;42.144;24.722;2023-03-25T11:00:42;7.22;;;5.50;;
6852;SDS011;3465;42.144;24.722;2023-03-25T11:03:19;7.53;;;5.43;;
6852;SDS011;3465;42.144;24.722;2023-03-25T11:05:49;9.95;;;5.60;;
6852;SDS011;3465;42.144;24.722;2023-03-25T11:08:15;10.70;;;5.60;;
6852;SDS011;3465;42.144;24.722;2023-03-25T11:10:49;8.52;;;5.57;;
6852;SDS011;3465;42.144;24.722;2023-03-25T11:13:22;6.93;;;4.78;;
6852;SDS011;3465;42.144;24.722;2023-03-25T11:15:50;7.70;;;4.80;;
6852;SDS011;3465;42.144;24.722;2023-03-25T11:18:34;6.50;;;4.32;;
6852;SDS011;3465;42.144;24.722;2023-03-25T11:21:04;8.75;;;4.70;;
6852;SDS011;3465;42.144;24.722;2023-03-25T11:23:33;8.57;;;4.93;;
6852;SDS011;3465;42.144;24.722;2023-03-25T11:29:00;7.95;;;5.88;;
6852;SDS011;3465;42.144;24.722;2023-03-25T11:31:28;18.52;;;5.40;;
6852;SDS011;3465;42.144;24.722;2023-03-25T11:34:20;12.02;;;5.20;;
6852;SDS011;3465;42.144;24.722;2023-03-25T11:36:53;6.35;;;4.85;;
6852;SDS011;3465;42.144;24.722;2023-03-25T11:39:39;10.50;;;5.38;;
6852;SDS011;3465;42.144;24.722;2023-03-25T11:44:50;11.57;;;5.30;;
6852;SDS011;3465;42.144;24.722;2023-03-25T11:47:51;8.00;;;4.95;;
6852;SDS011;3465;42.144;24.722;2023-03-25T11:50:17;7.03;;;5.13;;
6852;SDS011;3465;42.144;24.722;2023-03-25T11:52:58;9.52;;;5.80;;
6852;SDS011;3465;42.144;24.722;2023-03-25T11:58:25;10.07;;;5.45;;
6852;SDS011;3465;42.144;24.722;2023-03-25T12:01:01;8.10;;;4.85;;
6852;SDS011;3465;42.144;24.722;2023-03-25T12:03:30;7.60;;;5.57;;
6852;SDS011;3465;42.144;24.722;2023-03-25T12:11:34;11.57;;;5.47;;
6852;SDS011;3465;42.144;24.722;2023-03-25T12:14:15;9.90;;;5.25;;
6852;SDS011;3465;42.144;24.722;2023-03-25T12:22:59;8.15;;;5.28;;
6852;SDS011;3465;42.144;24.722;2023-03-25T12:28:15;7.72;;;5.25;;
6852;SDS011;3465;42.144;24.722;2023-03-25T12:34:05;8.65;;;4.97;;
6852;SDS011;3465;42.144;24.722;2023-03-25T12:42:37;7.90;;;5.07;;
6852;SDS011;3465;42.144;24.722;2023-03-25T12:47:51;11.23;;;4.88;;
6852;SDS011;3465;42.144;24.722;2023-03-25T12:53:53;13.32;;;5.35;;
6852;SDS011;3465;42.144;24.722;2023-03-25T13:07:11;7.13;;;4.30;;
6852;SDS011;3465;42.144;24.722;2023-03-25T13:12:34;9.98;;;4.40;;
6852;SDS011;3465;42.144;24.722;2023-03-25T13:17:54;6.00;;;4.35;;
6852;SDS011;3465;42.144;24.722;2023-03-25T13:20:27;5.82;;;4.20;;
6852;SDS011;3465;42.144;24.722;2023-03-25T13:22:57;7.80;;;3.95;;
6852;SDS011;3465;42.144;24.722;2023-03-25T13:25:44;7.95;;;4.13;;
6852;SDS011;3465;42.144;24.722;2023-03-25T13:28:22;9.95;;;4.88;;
6852;SDS011;3465;42.144;24.722;2023-03-25T13:30:52;6.93;;;4.50;;
6852;SDS011;3465;42.144;24.722;2023-03-25T13:33:24;10.00;;;4.63;;
6852;SDS011;3465;42.144;24.722;2023-03-25T13:35:56;7.53;;;3.92;;
6852;SDS011;3465;42.144;24.722;2023-03-25T13:41:33;8.73;;;4.68;;
6852;SDS011;3465;42.144;24.722;2023-03-25T13:46:49;5.18;;;4.18;;
6852;SDS011;3465;42.144;24.722;2023-03-25T13:51:52;9.30;;;4.18;;
6852;SDS011;3465;42.144;24.722;2023-03-25T13:59:46;10.60;;;5.45;;
6852;SDS011;3465;42.144;24.722;2023-03-25T14:13:09;8.95;;;4.65;;
6852;SDS011;3465;42.144;24.722;2023-03-25T14:15:45;26.58;;;8.80;;
6852;SDS011;3465;42.144;24.722;2023-03-25T14:18:20;6.82;;;4.35;;
6852;SDS011;3465;42.144;24.722;2023-03-25T14:20:46;33.90;;;13.00;;
6852;SDS011;3465;42.144;24.722;2023-03-25T14:23:14;9.35;;;5.15;;
6852;SDS011;3465;42.144;24.722;2023-03-25T14:25:47;12.52;;;5.88;;
6852;SDS011;3465;42.144;24.722;2023-03-25T14:28:18;7.13;;;4.68;;
6852;SDS011;3465;42.144;24.722;2023-03-25T14:34:34;21.58;;;9.23;;
6852;SDS011;3465;42.144;24.722;2023-03-25T14:39:07;8.45;;;4.60;;
6852;SDS011;3465;42.144;24.722;2023-03-25T14:44:40;6.80;;;4.60;;
6852;SDS011;3465;42.144;24.722;2023-03-25T14:49:51;8.07;;;4.40;;
6852;SDS011;3465;42.144;24.722;2023-03-25T14:55:08;8.50;;;4.75;;
6852;SDS011;3465;42.144;24.722;2023-03-25T14:57:40;7.25;;;4.95;;
6852;SDS011;3465;42.144;24.722;2023-03-25T15:00:08;8.77;;;4.90;;
6852;SDS011;3465;42.144;24.722;2023-03-25T15:02:39;9.73;;;4.35;;
6852;SDS011;3465;42.144;24.722;2023-03-25T15:05:19;10.38;;;4.72;;
6852;SDS011;3465;42.144;24.722;2023-03-25T15:07:51;7.97;;;4.78;;
6852;SDS011;3465;42.144;24.722;2023-03-25T15:10:26;10.63;;;5.47;;
6852;SDS011;3465;42.144;24.722;2023-03-25T15:13:03;8.75;;;5.55;;
6852;SDS011;3465;42.144;24.722;2023-03-25T15:15:50;9.13;;;5.72;;
6852;SDS011;3465;42.144;24.722;2023-03-25T15:23:40;8.40;;;5.93;;
6852;SDS011;3465;42.144;24.722;2023-03-25T15:26:13;8.23;;;5.22;;
6852;SDS011;3465;42.144;24.722;2023-03-25T15:34:17;12.45;;;5.75;;
6852;SDS011;3465;42.144;24.722;2023-03-25T15:53:49;16.40;;;7.88;;
6852;SDS011;3465;42.144;24.722;2023-03-25T15:56:24;13.23;;;7.38;;
6852;SDS011;3465;42.144;24.722;2023-03-25T16:02:02;12.55;;;7.07;;
6852;SDS011;3465;42.144;24.722;2023-03-25T16:07:07;13.50;;;5.43;;
6852;SDS011;3465;42.144;24.722;2023-03-25T16:09:39;7.38;;;4.78;;
6852;SDS011;3465;42.144;24.722;2023-03-25T16:12:10;10.43;;;4.63;;
6852;SDS011;3465;42.144;24.722;2023-03-25T16:14:35;9.77;;;4.70;;
6852;SDS011;3465;42.144;24.722;2023-03-25T16:17:02;9.63;;;4.68;;
6852;SDS011;3465;42.144;24.722;2023-03-25T16:19:38;8.10;;;4.60;;
6852;SDS011;3465;42.144;24.722;2023-03-25T16:22:19;10.77;;;4.80;;
6852;SDS011;3465;42.144;24.722;2023-03-25T16:25:02;12.95;;;4.85;;
6852;SDS011;3465;42.144;24.722;2023-03-25T16:27:41;10.88;;;5.35;;
6852;SDS011;3465;42.144;24.722;2023-03-25T16:30:19;12.35;;;5.47;;
6852;SDS011;3465;42.144;24.722;2023-03-25T16:32:47;13.75;;;5.63;;
6852;SDS011;3465;42.144;24.722;2023-03-25T16:35:20;12.65;;;6.20;;
6852;SDS011;3465;42.144;24.722;2023-03-25T16:37:48;10.60;;;6.43;;
6852;SDS011;3465;42.144;24.722;2023-03-25T16:40:19;11.27;;;6.65;;
6852;SDS011;3465;42.144;24.722;2023-03-25T16:42:51;13.02;;;6.97;;
6852;SDS011;3465;42.144;24.722;2023-03-25T16:45:18;14.60;;;7.93;;
6852;SDS011;3465;42.144;24.722;2023-03-25T16:47:45;31.45;;;13.43;;
6852;SDS011;3465;42.144;24.722;2023-03-25T16:50:14;13.10;;;7.10;;
6852;SDS011;3465;42.144;24.722;2023-03-25T16:52:43;11.80;;;7.10;;
6852;SDS011;3465;42.144;24.722;2023-03-25T16:55:11;13.60;;;6.10;;
6852;SDS011;3465;42.144;24.722;2023-03-25T16:57:37;8.45;;;5.18;;
6852;SDS011;3465;42.144;24.722;2023-03-25T17:00:20;5.97;;;4.18;;
6852;SDS011;3465;42.144;24.722;2023-03-25T17:02:48;8.73;;;3.65;;
6852;SDS011;3465;42.144;24.722;2023-03-25T17:05:16;7.90;;;4.18;;
6852;SDS011;3465;42.144;24.722;2023-03-25T17:07:43;10.68;;;4.13;;
6852;SDS011;3465;42.144;24.722;2023-03-25T17:13:06;6.63;;;4.20;;
6852;SDS011;3465;42.144;24.722;2023-03-25T17:15:33;7.20;;;4.60;;
6852;SDS011;3465;42.144;24.722;2023-03-25T17:17:59;7.47;;;5.10;;
6852;SDS011;3465;42.144;24.722;2023-03-25T17:20:35;10.20;;;4.95;;
6852;SDS011;3465;42.144;24.722;2023-03-25T17:23:05;6.97;;;4.85;;
6852;SDS011;3465;42.144;24.722;2023-03-25T17:25:47;7.60;;;4.55;;
6852;SDS011;3465;42.144;24.722;2023-03-25T17:34:09;10.27;;;6.30;;
6852;SDS011;3465;42.144;24.722;2023-03-25T17:36:37;13.25;;;7.07;;
6852;SDS011;3465;42.144;24.722;2023-03-25T17:39:12;16.02;;;7.10;;
6852;SDS011;3465;42.144;24.722;2023-03-25T17:41:44;11.70;;;7.35;;
6852;SDS011;3465;42.144;24.722;2023-03-25T17:44:14;12.02;;;7.80;;
6852;SDS011;3465;42.144;24.722;2023-03-25T17:46:41;14.65;;;8.27;;
6852;SDS011;3465;42.144;24.722;2023-03-25T17:49:12;12.20;;;7.63;;
6852;SDS011;3465;42.144;24.722;2023-03-25T17:51:40;14.07;;;8.70;;
6852;SDS011;3465;42.144;24.722;2023-03-25T17:54:06;11.82;;;8.05;;
6852;SDS011;3465;42.144;24.722;2023-03-25T17:56:31;11.48;;;8.07;;
6852;SDS011;3465;42.144;24.722;2023-03-25T17:59:01;12.18;;;7.90;;
6852;SDS011;3465;42.144;24.722;2023-03-25T18:01:28;12.45;;;8.02;;
6852;SDS011;3465;42.144;24.722;2023-03-25T18:03:59;17.23;;;9.77;;
6852;SDS011;3465;42.144;24.722;2023-03-25T18:06:25;12.50;;;7.80;;
6852;SDS011;3465;42.144;24.722;2023-03-25T18:08:51;15.68;;;7.55;;
6852;SDS011;3465;42.144;24.722;2023-03-25T18:11:17;12.40;;;6.00;;
6852;SDS011;3465;42.144;24.722;2023-03-25T18:13:43;11.40;;;6.25;;
6852;SDS011;3465;42.144;24.722;2023-03-25T18:16:16;10.00;;;6.40;;
6852;SDS011;3465;42.144;24.722;2023-03-25T18:18:43;9.43;;;6.25;;